createdAt,value
2019-04-30T00:02:40.023Z,7.75
2019-04-30T00:05:10.096Z,7.78
2019-04-30T00:07:38.201Z,7.87
2019-04-30T00:10:07.547Z,7.92
2019-04-30T00:12:39.422Z,7.72
2019-04-30T00:15:06.251Z,7.92
2019-04-30T00:17:35.862Z,8.75
2019-04-30T00:20:05.690Z,9.03
2019-04-30T00:22:34.485Z,8.53
2019-04-30T00:25:05.411Z,8.98
2019-04-30T00:27:35.528Z,8.75
2019-04-30T00:30:09.047Z,8.83
2019-04-30T00:32:43.390Z,8.83
2019-04-30T00:35:11.739Z,9.18
2019-04-30T00:37:37.731Z,8.00
2019-04-30T00:40:06.071Z,9.18
2019-04-30T00:42:35.765Z,9.18
2019-04-30T00:45:10.007Z,8.80
2019-04-30T00:47:39.422Z,9.10
2019-04-30T00:50:08.492Z,9.70
2019-04-30T00:52:37.329Z,9.13
2019-04-30T00:55:09.015Z,9.65
2019-04-30T00:57:43.768Z,9.93
2019-04-30T01:00:07.733Z,10.38
2019-04-30T01:02:49.831Z,10.65
2019-04-30T01:05:19.744Z,10.82
2019-04-30T01:07:51.697Z,11.30
2019-04-30T01:10:19.582Z,10.93
2019-04-30T01:12:50.267Z,11.73
2019-04-30T01:15:19.063Z,11.90
2019-04-30T01:17:51.069Z,11.83
2019-04-30T01:20:19.238Z,11.90
2019-04-30T01:22:48.679Z,12.88
2019-04-30T01:25:18.694Z,12.65
2019-04-30T01:27:48.998Z,12.93
2019-04-30T01:30:18.617Z,11.80
2019-04-30T01:32:51.948Z,12.80
2019-04-30T01:35:18.648Z,12.20
2019-04-30T01:37:48.757Z,12.65
2019-04-30T01:40:18.839Z,12.58
2019-04-30T01:42:48.514Z,12.28
2019-04-30T01:45:18.788Z,12.60
2019-04-30T01:47:47.292Z,11.80
2019-04-30T01:50:16.050Z,12.47
2019-04-30T01:52:53.064Z,12.40
2019-04-30T01:55:23.924Z,12.70
2019-04-30T01:58:09.102Z,12.40
2019-04-30T02:00:39.196Z,12.58
2019-04-30T02:03:08.753Z,12.85
2019-04-30T02:05:38.616Z,12.98
2019-04-30T02:08:08.453Z,13.40
2019-04-30T02:10:36.840Z,14.23
2019-04-30T02:13:05.123Z,14.23
2019-04-30T02:15:33.356Z,14.03
2019-04-30T02:18:01.629Z,14.35
2019-04-30T02:20:29.880Z,13.70
2019-04-30T02:22:58.799Z,13.62
2019-04-30T02:25:27.191Z,15.83
2019-04-30T02:27:55.452Z,15.30
2019-04-30T02:30:23.773Z,15.08
2019-04-30T02:32:52.482Z,14.28
2019-04-30T02:35:31.877Z,14.78
2019-04-30T02:38:10.850Z,15.08
2019-04-30T02:40:42.296Z,14.90
2019-04-30T02:43:09.437Z,14.63
2019-04-30T02:45:39.963Z,14.87
2019-04-30T02:48:11.401Z,15.70
2019-04-30T02:50:39.299Z,15.40
2019-04-30T02:53:29.254Z,15.45
2019-04-30T02:56:02.611Z,16.40
2019-04-30T02:58:30.430Z,16.27
2019-04-30T03:01:00.267Z,16.40
2019-04-30T03:03:29.908Z,16.00
2019-04-30T03:05:59.546Z,16.25
2019-04-30T03:08:29.771Z,16.05
2019-04-30T03:11:00.115Z,16.40
2019-04-30T03:13:29.962Z,16.23
2019-04-30T03:15:59.335Z,16.37
2019-04-30T03:18:30.270Z,16.45
2019-04-30T03:21:00.271Z,16.45
2019-04-30T03:23:29.320Z,16.55
2019-04-30T03:25:59.740Z,16.00
2019-04-30T03:28:30.162Z,15.75
2019-04-30T03:31:03.457Z,16.07
2019-04-30T03:33:32.233Z,16.32
2019-04-30T03:36:01.910Z,16.20
2019-04-30T03:38:30.087Z,16.97
2019-04-30T03:41:00.251Z,16.30
2019-04-30T03:43:30.094Z,17.15
2019-04-30T03:45:59.424Z,16.35
2019-04-30T03:48:29.382Z,16.40
2019-04-30T03:51:01.172Z,16.87
2019-04-30T03:53:29.826Z,17.30
2019-04-30T03:56:01.286Z,18.05
2019-04-30T03:58:29.269Z,17.32
2019-04-30T04:01:02.180Z,20.65
2019-04-30T04:03:32.069Z,21.93
2019-04-30T04:06:21.233Z,20.05
2019-04-30T04:08:49.896Z,18.30
2019-04-30T04:11:20.013Z,17.67
2019-04-30T04:13:49.573Z,17.57
2019-04-30T04:16:19.499Z,17.95
2019-04-30T04:18:50.103Z,18.05
2019-04-30T04:21:20.499Z,17.45
2019-04-30T04:23:49.333Z,16.60
2019-04-30T04:26:20.085Z,17.20
2019-04-30T04:28:49.656Z,21.65
2019-04-30T04:31:19.302Z,24.02
2019-04-30T04:33:49.672Z,17.80
2019-04-30T04:36:19.946Z,16.97
2019-04-30T04:38:50.421Z,16.50
2019-04-30T04:41:19.839Z,17.12
2019-04-30T04:43:50.414Z,16.85
2019-04-30T04:46:20.337Z,17.25
2019-04-30T04:48:49.351Z,16.90
2019-04-30T04:51:31.393Z,16.57
2019-04-30T04:53:50.090Z,17.25
2019-04-30T04:56:19.058Z,16.30
2019-04-30T04:58:49.962Z,15.90
2019-04-30T05:01:20.171Z,15.88
2019-04-30T05:03:49.033Z,16.07
2019-04-30T05:06:20.685Z,15.53
2019-04-30T05:08:49.225Z,15.13
2019-04-30T05:11:19.227Z,14.53
2019-04-30T05:13:49.046Z,15.50
2019-04-30T05:16:19.073Z,15.60
2019-04-30T05:18:48.783Z,15.10
2019-04-30T05:21:18.816Z,14.40
2019-04-30T05:23:49.118Z,14.07
2019-04-30T05:26:19.100Z,14.20
2019-04-30T05:28:50.866Z,14.00
2019-04-30T05:31:18.473Z,13.08
2019-04-30T05:33:48.893Z,13.53
2019-04-30T05:36:19.218Z,13.45
2019-04-30T05:38:48.751Z,14.58
2019-04-30T05:41:19.147Z,13.00
2019-04-30T05:43:48.805Z,13.30
2019-04-30T05:46:17.249Z,13.85
2019-04-30T05:48:47.160Z,13.70
2019-04-30T05:51:19.294Z,14.13
2019-04-30T05:53:49.100Z,13.83
2019-04-30T05:56:19.188Z,13.03
2019-04-30T05:58:47.062Z,14.18
2019-04-30T06:01:15.393Z,13.75
2019-04-30T06:03:43.642Z,14.78
2019-04-30T06:06:11.920Z,13.88
2019-04-30T06:08:41.904Z,14.25
2019-04-30T06:11:11.816Z,15.10
2019-04-30T06:13:49.158Z,14.07
2019-04-30T06:16:19.360Z,13.68
2019-04-30T06:18:48.539Z,13.03
2019-04-30T06:21:21.324Z,14.28
2019-04-30T06:23:47.164Z,14.60
2019-04-30T06:26:16.024Z,13.83
2019-04-30T06:28:44.465Z,14.73
2019-04-30T06:31:13.564Z,14.07
2019-04-30T06:33:42.998Z,14.55
2019-04-30T06:36:11.410Z,14.40
2019-04-30T06:38:39.687Z,13.93
2019-04-30T06:41:08.690Z,14.15
2019-04-30T06:43:38.577Z,14.65
2019-04-30T06:46:08.754Z,13.50
2019-04-30T06:48:37.118Z,12.93
2019-04-30T06:51:05.377Z,12.63
2019-04-30T06:53:33.702Z,13.05
2019-04-30T06:56:01.978Z,12.55
2019-04-30T06:58:30.214Z,13.00
2019-04-30T07:00:59.592Z,13.22
2019-04-30T07:03:29.079Z,13.05
2019-04-30T07:05:58.602Z,12.23
2019-04-30T07:08:54.643Z,12.25
2019-04-30T07:11:33.011Z,12.33
2019-04-30T07:14:01.329Z,11.63
2019-04-30T07:16:29.964Z,12.03
2019-04-30T07:18:58.599Z,12.60
2019-04-30T07:21:29.420Z,12.10
2019-04-30T07:23:57.302Z,11.63
2019-04-30T07:26:25.588Z,11.80
2019-04-30T07:28:55.298Z,11.48
2019-04-30T07:31:24.010Z,10.93
2019-04-30T07:33:53.959Z,10.13
2019-04-30T07:36:22.270Z,10.80
2019-04-30T07:38:56.124Z,10.23
2019-04-30T07:41:20.572Z,10.60
2019-04-30T07:43:49.463Z,10.20
2019-04-30T07:46:19.772Z,9.48
2019-04-30T07:48:49.946Z,9.33
2019-04-30T07:51:20.740Z,9.28
2019-04-30T07:53:49.647Z,9.05
2019-04-30T07:56:25.698Z,8.28
2019-04-30T07:58:50.250Z,8.00
2019-04-30T08:01:19.606Z,8.85
2019-04-30T08:03:52.348Z,9.20
2019-04-30T08:08:51.811Z,9.05
2019-04-30T08:11:25.724Z,9.15
2019-04-30T08:13:51.148Z,8.55
2019-04-30T08:16:19.638Z,8.18
2019-04-30T08:18:49.221Z,7.50
2019-04-30T08:21:19.043Z,8.00
2019-04-30T08:23:48.983Z,8.25
2019-04-30T08:26:18.792Z,7.67
2019-04-30T08:28:48.776Z,8.15
2019-04-30T08:31:19.379Z,8.00
2019-04-30T08:33:49.077Z,7.10
2019-04-30T08:36:19.534Z,7.08
2019-04-30T08:38:49.380Z,6.97
2019-04-30T08:41:19.249Z,6.45
2019-04-30T08:43:49.490Z,7.10
2019-04-30T08:46:19.087Z,6.50
2019-04-30T08:48:53.603Z,6.42
2019-04-30T08:51:20.879Z,6.50
2019-04-30T08:53:49.264Z,6.05
2019-04-30T08:56:21.668Z,6.15
2019-04-30T08:58:49.129Z,5.80
2019-04-30T09:01:19.584Z,5.87
2019-04-30T09:03:50.910Z,5.80
2019-04-30T09:09:10.712Z,5.80
2019-04-30T09:11:51.799Z,5.05
2019-04-30T09:14:08.839Z,5.45
2019-04-30T09:16:39.085Z,5.30
2019-04-30T09:19:14.743Z,5.50
2019-04-30T09:21:40.223Z,5.45
2019-04-30T09:24:09.512Z,5.80
2019-04-30T09:26:39.189Z,5.45
2019-04-30T09:29:09.286Z,5.58
2019-04-30T09:31:40.821Z,5.87
2019-04-30T09:34:17.095Z,5.75
2019-04-30T09:36:41.456Z,6.30
2019-04-30T09:39:11.289Z,6.20
2019-04-30T09:41:41.159Z,5.45
2019-04-30T09:44:10.053Z,5.87
2019-04-30T09:46:38.900Z,5.65
2019-04-30T09:49:09.520Z,5.75
2019-04-30T09:51:39.384Z,6.12
2019-04-30T09:54:11.852Z,6.25
2019-04-30T09:56:39.243Z,6.30
2019-04-30T09:59:09.123Z,6.87
2019-04-30T10:01:37.491Z,6.92
2019-04-30T10:04:06.257Z,7.45
2019-04-30T10:06:39.513Z,9.33
2019-04-30T10:09:06.664Z,8.50
2019-04-30T10:11:36.591Z,8.60
2019-04-30T10:14:04.840Z,9.55
2019-04-30T10:16:39.424Z,9.98
2019-04-30T10:19:10.272Z,9.45
2019-04-30T10:21:38.924Z,9.10
2019-04-30T10:24:13.066Z,10.25
2019-04-30T10:26:37.330Z,12.53
2019-04-30T10:29:05.808Z,11.10
2019-04-30T10:31:34.047Z,12.95
2019-04-30T10:34:02.330Z,13.22
2019-04-30T10:36:30.616Z,14.28
2019-04-30T10:38:59.556Z,14.98
2019-04-30T10:41:28.805Z,12.70
2019-04-30T10:43:59.061Z,12.80
2019-04-30T10:46:27.320Z,12.03
2019-04-30T10:48:55.573Z,12.30
2019-04-30T10:51:23.857Z,12.10
2019-04-30T10:53:52.130Z,12.68
2019-04-30T10:56:23.416Z,12.35
2019-04-30T10:58:51.706Z,14.20
2019-04-30T11:01:29.166Z,14.15
2019-04-30T11:03:57.594Z,14.47
2019-04-30T11:06:25.844Z,14.73
2019-04-30T11:08:53.878Z,13.72
2019-04-30T11:11:21.996Z,12.95
2019-04-30T11:13:50.242Z,11.40
2019-04-30T11:16:18.928Z,9.18
2019-04-30T11:18:47.425Z,8.63
2019-04-30T11:21:16.203Z,9.10
2019-04-30T11:23:44.798Z,12.37
2019-04-30T11:26:13.825Z,9.98
2019-04-30T11:28:42.661Z,11.55
2019-04-30T11:31:12.824Z,11.83
2019-04-30T11:33:41.441Z,12.70
2019-04-30T11:36:10.050Z,12.50
2019-04-30T11:38:38.879Z,12.98
2019-04-30T11:41:08.671Z,13.00
2019-04-30T11:43:37.105Z,14.98
2019-04-30T11:46:18.702Z,14.15
2019-04-30T11:48:48.895Z,15.50
2019-04-30T11:51:19.287Z,16.17
2019-04-30T11:53:49.022Z,15.50
2019-04-30T11:56:17.435Z,15.85
2019-04-30T11:58:45.724Z,14.75
2019-04-30T12:01:15.690Z,16.32
2019-04-30T12:03:43.987Z,16.82
2019-04-30T12:06:12.302Z,17.35
2019-04-30T12:08:59.104Z,17.37
2019-04-30T12:11:37.733Z,15.83
2019-04-30T12:14:06.092Z,16.48
2019-04-30T12:16:34.380Z,18.20
2019-04-30T12:19:02.707Z,17.42
2019-04-30T12:21:31.006Z,17.70
2019-04-30T12:23:59.288Z,17.87
2019-04-30T12:26:29.180Z,17.92
2019-04-30T12:28:57.450Z,18.75
2019-04-30T12:31:25.748Z,17.98
2019-04-30T12:33:54.094Z,17.57
2019-04-30T12:36:22.534Z,17.57
2019-04-30T12:38:50.815Z,18.12
2019-04-30T12:41:19.074Z,16.97
2019-04-30T12:43:47.341Z,15.55
2019-04-30T12:46:15.642Z,15.58
2019-04-30T12:48:51.318Z,15.50
2019-04-30T12:51:27.185Z,16.10
2019-04-30T12:53:57.087Z,15.88
2019-04-30T12:56:35.668Z,16.80
2019-04-30T12:59:04.039Z,18.40
2019-04-30T13:01:34.202Z,18.45
2019-04-30T13:04:02.268Z,18.87
2019-04-30T13:06:31.833Z,19.07
2019-04-30T13:09:01.253Z,19.23
2019-04-30T13:11:31.086Z,19.40
2019-04-30T13:14:00.368Z,18.95
2019-04-30T13:16:29.315Z,19.73
2019-04-30T13:18:59.365Z,18.62
2019-04-30T13:21:28.465Z,19.02
2019-04-30T13:23:56.991Z,19.50
2019-04-30T13:26:25.235Z,19.10
2019-04-30T13:29:13.590Z,19.00
2019-04-30T13:31:41.836Z,19.17
2019-04-30T13:34:30.011Z,18.92
2019-04-30T13:36:59.377Z,19.35
2019-04-30T13:39:29.420Z,17.90
2019-04-30T13:41:59.322Z,17.70
2019-04-30T13:44:29.463Z,16.90
2019-04-30T13:46:57.886Z,17.62
2019-04-30T13:49:26.206Z,16.35
2019-04-30T13:51:54.471Z,16.27
2019-04-30T13:54:22.725Z,15.10
2019-04-30T13:56:50.958Z,15.70
2019-04-30T13:59:19.231Z,16.97
2019-04-30T14:01:48.885Z,16.32
2019-04-30T14:04:25.116Z,16.10
2019-04-30T14:07:11.334Z,15.28
2019-04-30T14:09:39.865Z,15.23
2019-04-30T14:12:08.114Z,15.53
2019-04-30T14:14:36.390Z,14.47
2019-04-30T14:17:04.645Z,14.47
2019-04-30T14:19:32.905Z,15.23
2019-04-30T14:22:01.156Z,14.50
2019-04-30T14:24:29.401Z,14.65
2019-04-30T14:26:59.082Z,14.30
2019-04-30T14:29:28.473Z,15.00
2019-04-30T14:31:58.772Z,14.43
2019-04-30T14:34:28.596Z,15.63
2019-04-30T14:36:59.182Z,16.27
2019-04-30T14:39:29.040Z,17.00
2019-04-30T14:41:59.627Z,18.87
2019-04-30T14:44:31.179Z,21.05
2019-04-30T14:47:06.439Z,16.30
2019-04-30T14:50:01.594Z,15.63
2019-04-30T14:52:23.247Z,15.90
2019-04-30T14:55:09.774Z,15.08
2019-04-30T14:57:42.644Z,15.90
2019-04-30T15:00:18.021Z,16.42
2019-04-30T15:02:50.000Z,23.38
2019-04-30T15:05:19.589Z,19.95
2019-04-30T15:07:47.899Z,17.02
2019-04-30T15:10:16.261Z,18.00
2019-04-30T15:12:44.505Z,25.65
2019-04-30T15:15:12.817Z,17.12
2019-04-30T15:17:41.274Z,15.72
2019-04-30T15:20:09.611Z,15.68
2019-04-30T15:22:39.518Z,16.15
2019-04-30T15:25:07.774Z,17.02
2019-04-30T15:27:36.019Z,17.60
2019-04-30T15:30:06.318Z,16.97
2019-04-30T15:32:36.203Z,16.05
2019-04-30T15:35:06.484Z,15.98
2019-04-30T15:37:35.609Z,15.32
2019-04-30T15:40:05.806Z,15.23
2019-04-30T15:42:35.700Z,15.40
2019-04-30T15:45:05.601Z,15.30
2019-04-30T15:47:33.854Z,18.05
2019-04-30T15:50:02.305Z,24.85
2019-04-30T15:52:30.635Z,15.48
2019-04-30T15:54:59.289Z,15.28
2019-04-30T15:57:29.416Z,14.13
2019-04-30T15:59:57.697Z,17.82
2019-04-30T16:02:33.531Z,21.65
2019-04-30T16:05:09.475Z,15.35
2019-04-30T16:07:40.745Z,14.90
2019-04-30T16:10:11.300Z,15.05
2019-04-30T16:12:41.204Z,14.95
2019-04-30T16:15:10.040Z,14.23
2019-04-30T16:17:40.018Z,14.35
2019-04-30T16:20:08.422Z,14.78
2019-04-30T16:22:36.696Z,14.10
2019-04-30T16:25:05.985Z,15.08
2019-04-30T16:27:34.237Z,14.23
2019-04-30T16:30:02.479Z,14.75
2019-04-30T16:32:30.758Z,14.28
2019-04-30T16:34:59.338Z,14.20
2019-04-30T16:37:28.745Z,14.45
2019-04-30T16:39:57.189Z,14.63
2019-04-30T16:42:25.438Z,13.83
2019-04-30T16:44:53.679Z,13.95
2019-04-30T16:47:21.948Z,15.13
2019-04-30T16:49:50.261Z,14.68
2019-04-30T16:52:18.995Z,13.85
2019-04-30T16:54:47.948Z,15.03
2019-04-30T16:57:17.376Z,14.98
2019-04-30T16:59:45.614Z,14.90
2019-04-30T17:02:14.258Z,14.53
2019-04-30T17:04:59.101Z,14.35
2019-04-30T17:07:31.537Z,13.48
2019-04-30T17:10:08.989Z,14.25
2019-04-30T17:12:38.775Z,14.15
2019-04-30T17:15:23.708Z,13.75
2019-04-30T17:17:51.969Z,12.93
2019-04-30T17:20:21.039Z,13.55
2019-04-30T17:22:49.738Z,13.70
2019-04-30T17:25:18.677Z,12.93
2019-04-30T17:27:46.933Z,13.43
2019-04-30T17:30:15.172Z,12.53
2019-04-30T17:32:50.155Z,12.78
2019-04-30T17:35:19.011Z,13.00
2019-04-30T17:37:47.518Z,12.40
2019-04-30T17:40:15.760Z,13.25
2019-04-30T17:42:44.021Z,13.20
2019-04-30T17:45:12.295Z,12.73
2019-04-30T17:47:40.569Z,13.13
2019-04-30T17:50:09.128Z,12.85
2019-04-30T17:52:37.464Z,13.20
2019-04-30T17:55:09.677Z,12.88
2019-04-30T17:57:40.089Z,13.65
2019-04-30T18:00:16.936Z,13.78
2019-04-30T18:02:43.220Z,12.88
2019-04-30T18:05:11.833Z,13.55
2019-04-30T18:07:40.072Z,14.05
2019-04-30T18:10:13.147Z,13.45
2019-04-30T18:15:15.047Z,14.50
2019-04-30T18:17:44.958Z,14.00
2019-04-30T18:20:32.722Z,13.98
2019-04-30T18:23:08.428Z,14.07
2019-04-30T18:25:38.659Z,14.18
2019-04-30T18:28:09.149Z,13.80
2019-04-30T18:30:39.171Z,16.00
2019-04-30T18:33:09.712Z,15.48
2019-04-30T18:35:38.836Z,13.60
2019-04-30T18:38:07.330Z,13.88
2019-04-30T18:40:35.671Z,14.30
2019-04-30T18:43:04.886Z,15.15
2019-04-30T18:45:33.146Z,14.65
2019-04-30T18:48:01.745Z,15.38
2019-04-30T18:50:30.127Z,14.78
2019-04-30T18:53:00.014Z,14.58
2019-04-30T18:55:28.598Z,15.48
2019-04-30T18:57:59.570Z,14.47
2019-04-30T19:00:29.457Z,15.30
2019-04-30T19:02:58.654Z,21.10
2019-04-30T19:05:29.396Z,15.40
2019-04-30T19:07:59.916Z,15.90
2019-04-30T19:10:41.571Z,15.83
2019-04-30T19:13:20.193Z,15.65
2019-04-30T19:16:19.933Z,15.38
2019-04-30T19:18:53.845Z,14.98
2019-04-30T19:21:22.252Z,15.70
2019-04-30T19:23:52.125Z,15.18
2019-04-30T19:26:20.901Z,16.25
2019-04-30T19:28:49.380Z,15.75
2019-04-30T19:31:19.725Z,16.60
2019-04-30T19:33:48.916Z,15.08
2019-04-30T19:36:20.698Z,15.63
2019-04-30T19:38:48.553Z,15.45
2019-04-30T19:41:18.913Z,15.85
2019-04-30T19:43:49.407Z,15.48
2019-04-30T19:46:18.752Z,15.18
2019-04-30T19:48:50.399Z,15.18
2019-04-30T19:51:17.306Z,16.12
2019-04-30T19:53:45.569Z,15.20
2019-04-30T19:56:13.828Z,18.17
2019-04-30T19:58:52.507Z,15.55
2019-04-30T20:01:12.081Z,16.27
2019-04-30T20:03:43.007Z,16.32
2019-04-30T20:06:11.256Z,16.10
2019-04-30T20:08:39.520Z,15.53
2019-04-30T20:11:07.783Z,15.60
2019-04-30T20:13:37.160Z,15.70
2019-04-30T20:16:05.652Z,15.95
2019-04-30T20:18:33.933Z,15.55
2019-04-30T20:21:03.924Z,17.20
2019-04-30T20:23:32.191Z,16.30
2019-04-30T20:26:00.489Z,15.65
2019-04-30T20:28:38.418Z,16.42
2019-04-30T20:30:58.713Z,15.48
2019-04-30T20:33:28.893Z,17.23
2019-04-30T20:35:58.949Z,16.70
2019-04-30T20:38:34.580Z,17.60
2019-04-30T20:41:14.700Z,16.62
2019-04-30T20:43:43.051Z,15.35
2019-04-30T20:46:11.301Z,16.05
2019-04-30T20:48:41.138Z,17.10
2019-04-30T20:51:09.700Z,16.48
2019-04-30T20:53:39.099Z,16.02
2019-04-30T20:56:09.245Z,16.65
2019-04-30T20:58:40.491Z,17.00
2019-04-30T21:01:09.639Z,16.73
2019-04-30T21:03:39.592Z,15.88
2019-04-30T21:06:08.842Z,16.70
2019-04-30T21:08:37.466Z,16.75
2019-04-30T21:11:05.707Z,17.48
2019-04-30T21:13:33.971Z,17.12
2019-04-30T21:16:02.230Z,16.80
2019-04-30T21:18:32.493Z,16.87
2019-04-30T21:21:00.473Z,16.67
2019-04-30T21:23:29.242Z,16.45
2019-04-30T21:25:58.926Z,15.45
2019-04-30T21:28:29.519Z,15.88
2019-04-30T21:30:59.024Z,16.95
2019-04-30T21:33:28.925Z,15.85
2019-04-30T21:35:58.895Z,16.42
2019-04-30T21:38:29.101Z,16.25
2019-04-30T21:41:00.921Z,15.75
2019-04-30T21:43:27.185Z,16.70
2019-04-30T21:45:55.446Z,16.42
2019-04-30T21:48:23.714Z,16.10
2019-04-30T21:50:51.951Z,15.75
2019-04-30T21:53:20.234Z,15.55
2019-04-30T21:55:49.685Z,16.37
2019-04-30T21:58:20.454Z,15.65
2019-04-30T22:00:50.797Z,15.78
2019-04-30T22:03:19.741Z,16.60
2019-04-30T22:05:48.216Z,16.02
2019-04-30T22:08:16.466Z,17.62
2019-04-30T22:10:44.702Z,17.25
2019-04-30T22:13:12.958Z,17.30
2019-04-30T22:15:41.215Z,16.67
2019-04-30T22:18:09.457Z,17.17
2019-04-30T22:20:38.860Z,19.10
2019-04-30T22:23:07.342Z,17.57
2019-04-30T22:25:35.639Z,17.62
2019-04-30T22:28:03.914Z,16.87
2019-04-30T22:30:32.218Z,17.45
2019-04-30T22:33:00.450Z,16.97
2019-04-30T22:35:30.326Z,18.00
2019-04-30T22:38:09.335Z,18.45
2019-04-30T22:40:39.215Z,18.45
2019-04-30T22:43:09.334Z,18.00
2019-04-30T22:45:42.424Z,18.52
2019-04-30T22:48:10.667Z,18.40
2019-04-30T22:50:38.931Z,18.95
2019-04-30T22:53:07.183Z,18.45
2019-04-30T22:55:35.424Z,18.40
2019-04-30T22:58:03.973Z,18.60
2019-04-30T23:00:33.874Z,18.85
2019-04-30T23:03:03.781Z,18.32
2019-04-30T23:05:32.055Z,18.55
2019-04-30T23:08:00.398Z,17.42
2019-04-30T23:10:28.769Z,17.70
2019-04-30T23:12:57.052Z,18.23
2019-04-30T23:15:25.295Z,19.15
2019-04-30T23:17:53.589Z,17.62
2019-04-30T23:20:21.847Z,18.32
2019-04-30T23:22:50.097Z,18.35
2019-04-30T23:25:18.367Z,18.00
2019-04-30T23:27:46.666Z,17.85
2019-04-30T23:30:14.918Z,18.55
2019-04-30T23:32:43.173Z,19.70
2019-04-30T23:35:11.431Z,17.90
2019-04-30T23:37:39.776Z,18.42
2019-04-30T23:40:32.204Z,17.50
2019-04-30T23:43:00.439Z,17.92
2019-04-30T23:45:28.720Z,17.27
2019-04-30T23:47:56.987Z,16.87
2019-04-30T23:50:25.250Z,17.27
2019-04-30T23:52:53.500Z,18.02
2019-04-30T23:55:21.750Z,16.93
2019-04-30T23:57:50.031Z,17.87
